Time;durP1;ratioP1;P1;durP2;ratioP2;P2;SDS_P1;SDS_P2;PMS_P1;PMS_P2;Temp;Humidity;BMP_temperature;BMP_pressure;BME280_temperature;BME280_humidity;BME280_pressure;Samples;Min_cycle;Max_cycle;Signal;HPM_P1;HPM_P2
2022/02/08 00:00:06;;;;;;;9.50;3.10;;;;;;;6.73;49.36;98879.81;5053233;28;20472;-69
2022/02/08 00:02:35;;;;;;;8.03;3.07;;;;;;;6.68;49.57;98883.59;5036886;28;20427;-69
2022/02/08 00:05:01;;;;;;;9.73;2.93;;;;;;;6.70;49.53;98882.59;5034378;28;20443;-69
2022/02/08 00:07:29;;;;;;;6.60;2.50;;;;;;;6.79;49.28;98885.59;5042796;28;20455;-69
2022/02/08 00:09:54;;;;;;;4.40;2.40;;;;;;;6.69;49.57;98882.66;5054355;28;20430;-69
2022/02/08 00:12:19;;;;;;;12.30;2.87;;;;;;;6.67;49.66;98887.13;5053919;28;20468;-70
2022/02/08 00:14:46;;;;;;;7.27;2.33;;;;;;;6.58;49.65;98889.31;5054347;28;20308;-69
2022/02/08 00:17:11;;;;;;;5.90;2.40;;;;;;;6.65;49.49;98894.19;5039678;28;20226;-68
2022/02/08 00:19:37;;;;;;;7.73;3.07;;;;;;;6.55;49.59;98894.69;5034211;28;20854;-68
2022/02/08 00:22:03;;;;;;;8.60;2.40;;;;;;;6.52;50.16;98887.06;5034147;28;20286;-70
2022/02/08 00:24:29;;;;;;;6.30;2.83;;;;;;;6.64;50.09;98887.31;5034200;28;20195;-69
2022/02/08 00:26:54;;;;;;;13.53;3.07;;;;;;;6.45;49.82;98888.31;5034262;28;20932;-68
2022/02/08 00:29:21;;;;;;;7.33;2.43;;;;;;;6.48;50.17;98892.53;5034178;28;20511;-69
2022/02/08 00:31:47;;;;;;;6.60;2.60;;;;;;;6.58;49.78;98904.13;5035609;28;20915;-68
2022/02/08 00:34:12;;;;;;;10.27;2.30;;;;;;;6.44;50.20;98897.91;5048499;28;20416;-69
2022/02/08 00:36:38;;;;;;;8.07;2.50;;;;;;;6.53;49.98;98893.09;5053888;28;20184;-68
2022/02/08 00:39:06;;;;;;;10.83;2.57;;;;;;;6.68;50.10;98896.63;5053570;28;20260;-68
2022/02/08 00:41:32;;;;;;;6.87;2.50;;;;;;;6.57;49.89;98900.66;5053701;28;20218;-68
2022/02/08 00:44:03;;;;;;;9.03;3.20;;;;;;;6.76;49.80;98887.44;5054201;28;20427;-68
2022/02/08 00:46:35;;;;;;;5.67;2.40;;;;;;;6.84;49.17;98894.81;5053974;28;20259;-69
2022/02/08 00:49:02;;;;;;;11.57;2.70;;;;;;;6.89;49.23;98890.19;5053714;28;20772;-69
2022/02/08 00:51:38;;;;;;;13.47;2.40;;;;;;;6.75;48.96;98890.13;5085158;28;20835;-69
2022/02/08 00:54:04;;;;;;;6.53;2.33;;;;;;;6.92;49.38;98894.38;5053649;28;20478;-68
2022/02/08 00:56:29;;;;;;;9.47;2.40;;;;;;;6.92;49.25;98899.59;5053330;28;20425;-69
2022/02/08 00:58:54;;;;;;;8.47;2.20;;;;;;;6.91;48.93;98895.31;5084463;28;20181;-69
2022/02/08 01:01:20;;;;;;;5.90;2.33;;;;;;;7.01;49.09;98885.19;5043754;28;20413;-69
2022/02/08 01:03:45;;;;;;;4.77;2.10;;;;;;;6.98;49.01;98882.78;5036674;28;20189;-68
2022/02/08 01:06:11;;;;;;;3.30;1.97;;;;;;;7.01;48.74;98891.25;5053612;28;20185;-68
2022/02/08 01:08:39;;;;;;;6.03;1.97;;;;;;;7.05;48.95;98897.97;5052953;28;20288;-69
2022/02/08 01:11:06;;;;;;;4.67;2.00;;;;;;;6.99;48.70;98900.09;5053060;28;20198;-68
2022/02/08 01:13:32;;;;;;;7.20;2.50;;;;;;;7.05;48.54;98902.34;5053194;28;20522;-69
2022/02/08 01:15:58;;;;;;;6.03;2.00;;;;;;;7.10;48.85;98891.66;5053022;28;20935;-68
2022/02/08 01:18:24;;;;;;;6.37;2.00;;;;;;;7.15;48.31;98893.06;5053302;28;20212;-68
2022/02/08 01:20:51;;;;;;;4.00;1.80;;;;;;;7.14;48.23;98899.22;5053077;28;20696;-69
2022/02/08 01:23:16;;;;;;;8.17;2.27;;;;;;;7.07;48.27;98897.88;5053136;28;20422;-69
2022/02/08 01:25:47;;;;;;;3.77;1.97;;;;;;;7.11;48.03;98903.78;5053138;28;20418;-68
2022/02/08 01:29:20;;;;;;;5.70;2.23;;;;;;;7.05;48.30;98903.19;5052865;28;20172;-69
2022/02/08 01:31:11;;;;;;;14.80;2.60;;;;;;;7.03;48.34;98904.22;5031051;28;20464;-68
2022/02/08 01:34:05;;;;;;;5.40;2.27;;;;;;;7.11;48.41;98899.38;5034272;28;20417;-70
2022/02/08 01:36:33;;;;;;;8.13;1.93;;;;;;;7.00;48.35;98902.59;5052534;28;20438;-68
2022/02/08 01:39:12;;;;;;;10.67;1.90;;;;;;;6.94;48.09;98904.72;5039799;28;20786;-68
2022/02/08 01:49:35;;;;;;;3.93;1.80;;;;;;;7.16;48.23;98914.75;5052359;28;20792;-68
2022/02/08 01:52:00;;;;;;;5.77;2.77;;;;;;;7.07;48.27;98905.69;5052558;28;20910;-68
2022/02/08 01:54:27;;;;;;;9.13;2.43;;;;;;;7.03;48.38;98907.66;5052534;28;20480;-69
2022/02/08 01:56:53;;;;;;;10.40;1.97;;;;;;;7.00;48.37;98893.94;5035153;28;20560;-69
2022/02/08 01:59:21;;;;;;;4.90;2.00;;;;;;;6.98;48.63;98901.88;5052252;28;20891;-68
2022/02/08 02:01:47;;;;;;;5.07;1.80;;;;;;;7.05;49.01;98899.75;5042272;28;20451;-68
2022/02/08 02:04:13;;;;;;;8.37;2.73;;;;;;;6.98;48.55;98901.00;5052354;28;20557;-69
2022/02/08 02:06:39;;;;;;;7.00;2.77;;;;;;;7.07;48.50;98897.88;5052282;28;20222;-68
2022/02/08 02:09:05;;;;;;;11.13;2.70;;;;;;;7.07;48.43;98897.88;5051418;28;20457;-68
2022/02/08 02:11:31;;;;;;;4.27;2.17;;;;;;;6.97;48.33;98891.50;5052028;28;20498;-68
2022/02/08 02:13:57;;;;;;;5.57;2.10;;;;;;;6.98;48.24;98893.19;5067547;28;20427;-68
2022/02/08 02:16:48;;;;;;;3.57;2.07;;;;;;;7.04;48.64;98895.47;5052268;28;20240;-68
2022/02/08 02:19:13;;;;;;;6.33;2.40;;;;;;;6.87;48.28;98905.09;5051951;28;20497;-68
2022/02/08 02:21:38;;;;;;;6.43;2.40;;;;;;;6.85;48.45;98896.50;5042108;28;20944;-68
2022/02/08 02:24:05;;;;;;;8.63;2.10;;;;;;;6.95;48.19;98906.41;5040570;28;20185;-68
2022/02/08 02:26:30;;;;;;;6.20;2.10;;;;;;;6.88;48.18;98901.56;5048496;28;20196;-68
2022/02/08 02:28:56;;;;;;;8.53;2.33;;;;;;;6.68;48.56;98905.28;5039010;28;20795;-68
2022/02/08 02:31:21;;;;;;;6.90;2.50;;;;;;;6.66;48.68;98891.50;5033674;28;20264;-68
2022/02/08 02:33:46;;;;;;;5.63;2.07;;;;;;;6.85;48.46;98891.28;5051573;28;20179;-68
2022/02/08 02:36:13;;;;;;;10.00;2.33;;;;;;;6.93;47.98;98890.03;5044967;28;20203;-68
2022/02/08 02:38:39;;;;;;;6.50;2.00;;;;;;;6.61;48.96;98883.94;5057159;28;20291;-68
2022/02/08 02:41:04;;;;;;;6.53;2.10;;;;;;;6.51;49.01;98882.78;5051535;28;20576;-68
2022/02/08 02:43:30;;;;;;;8.53;2.13;;;;;;;6.84;48.97;98889.59;5051829;28;20310;-68
2022/02/08 02:45:59;;;;;;;13.20;2.47;;;;;;;6.95;48.50;98882.94;5051817;28;20185;-68
2022/02/08 02:48:24;;;;;;;7.03;2.30;;;;;;;7.03;48.26;98883.34;5051090;28;20661;-68
2022/02/08 02:50:54;;;;;;;5.87;2.10;;;;;;;7.06;47.93;98885.75;5039467;28;20448;-68
2022/02/08 02:53:20;;;;;;;8.67;2.30;;;;;;;7.08;47.86;98896.94;5040056;28;20207;-68
2022/02/08 02:55:46;;;;;;;8.93;2.10;;;;;;;7.09;48.10;98890.81;5067743;28;20426;-68
2022/02/08 02:58:11;;;;;;;9.13;2.17;;;;;;;7.21;47.70;98897.91;5060568;28;20476;-68
2022/02/08 03:03:15;;;;;;;4.33;1.90;;;;;;;7.29;47.24;98900.06;5055261;28;20185;-68
2022/02/08 03:19:14;;;;;;;7.50;2.50;;;;;;;7.28;48.12;98889.75;5044964;28;20413;-69
2022/02/08 03:21:40;;;;;;;7.83;2.10;;;;;;;7.27;47.51;98891.50;5047345;28;20445;-69
2022/02/08 03:24:05;;;;;;;6.67;2.33;;;;;;;7.27;47.60;98886.28;5060312;28;20185;-69
2022/02/08 03:26:31;;;;;;;5.40;1.73;;;;;;;7.26;47.50;98896.81;5045896;28;20182;-69
2022/02/08 03:28:56;;;;;;;6.57;1.90;;;;;;;7.22;47.44;98894.38;5041611;28;20263;-68
2022/02/08 03:31:22;;;;;;;5.50;2.33;;;;;;;7.26;47.36;98899.44;5041895;28;20693;-68
2022/02/08 03:33:47;;;;;;;8.50;2.40;;;;;;;7.29;47.62;98899.25;5042979;28;20617;-69
2022/02/08 03:36:12;;;;;;;9.03;2.20;;;;;;;7.29;47.33;98901.84;5051546;28;20189;-69
2022/02/08 03:38:43;;;;;;;5.63;1.93;;;;;;;7.34;47.32;98905.03;5050834;28;20217;-69
2022/02/08 03:41:10;;;;;;;8.07;1.97;;;;;;;7.37;47.70;98900.44;5026814;28;20222;-69
2022/02/08 03:43:38;;;;;;;6.10;1.70;;;;;;;7.33;47.47;98900.72;5031342;28;20433;-69
2022/02/08 03:46:07;;;;;;;7.73;1.93;;;;;;;7.35;47.67;98906.69;5031259;28;20858;-69
2022/02/08 03:48:35;;;;;;;5.37;1.93;;;;;;;7.41;47.92;98905.50;5039135;28;20429;-69
2022/02/08 03:51:13;;;;;;;7.40;1.87;;;;;;;7.39;47.30;98910.81;5030554;28;20446;-69
2022/02/08 03:53:43;;;;;;;6.23;1.80;;;;;;;7.37;47.55;98905.66;5049678;28;20868;-67
2022/02/08 03:56:09;;;;;;;8.13;1.87;;;;;;;7.33;47.76;98903.34;5051001;28;20427;-69
2022/02/08 03:58:35;;;;;;;10.90;2.97;;;;;;;7.36;47.91;98905.78;5050684;28;20580;-69
2022/02/08 04:04:17;;;;;;;9.37;2.50;;;;;;;7.28;47.79;98905.41;5050483;28;20184;-69
2022/02/08 04:06:35;;;;;;;10.60;2.03;;;;;;;7.29;48.11;98910.50;5049852;28;20423;-67
2022/02/08 04:09:01;;;;;;;8.70;2.37;;;;;;;7.26;47.63;98904.63;5050489;28;20958;-69
2022/02/08 04:11:26;;;;;;;5.23;2.37;;;;;;;7.40;47.69;98912.50;5050224;28;20197;-69
2022/02/08 04:14:00;;;;;;;5.90;1.80;;;;;;;7.35;47.63;98898.88;5030552;28;20186;-69
2022/02/08 04:16:34;;;;;;;9.50;2.30;;;;;;;7.32;47.25;98902.50;5030866;28;20193;-69
2022/02/08 04:19:20;;;;;;;3.70;1.70;;;;;;;7.10;48.12;98900.31;5030685;28;20439;-69
2022/02/08 04:33:03;;;;;;;8.70;2.13;;;;;;;7.33;47.66;98904.19;5038709;28;20418;-68
2022/02/08 04:45:41;;;;;;;8.43;2.80;;;;;;;7.48;47.62;98914.66;5044628;28;20269;-68
2022/02/08 04:48:19;;;;;;;5.87;2.10;;;;;;;7.26;46.84;98909.84;5040057;28;20189;-68
2022/02/08 04:50:46;;;;;;;6.80;1.80;;;;;;;7.41;47.06;98914.19;5044738;28;20912;-68
2022/02/08 04:53:19;;;;;;;3.63;2.17;;;;;;;7.37;47.06;98915.28;5038538;28;20975;-69
2022/02/08 04:55:57;;;;;;;7.97;2.20;;;;;;;7.22;47.29;98915.25;5034619;28;20416;-68
2022/02/08 04:58:49;;;;;;;4.77;2.10;;;;;;;7.02;48.07;98908.56;5033433;28;20467;-69
2022/02/08 05:01:20;;;;;;;8.37;2.13;;;;;;;7.14;47.84;98909.66;5033120;28;20446;-69
2022/02/08 05:29:14;;;;;;;6.70;2.07;;;;;;;7.08;48.31;98894.34;5029505;28;20469;-69
2022/02/08 05:34:14;;;;;;;4.90;1.97;;;;;;;7.09;48.60;98896.03;5040760;28;20797;-69
2022/02/08 05:44:58;;;;;;;4.53;1.57;;;;;;;7.28;48.08;98890.56;4967511;28;20438;-68
2022/02/08 05:47:25;;;;;;;11.83;2.30;;;;;;;7.40;47.53;98889.03;4990678;28;20275;-68
2022/02/08 05:50:03;;;;;;;6.37;2.30;;;;;;;7.21;48.78;98895.31;4998402;28;20986;-67
2022/02/08 05:52:47;;;;;;;5.83;2.00;;;;;;;7.26;48.61;98892.41;4998069;28;20437;-69
2022/02/08 05:55:14;;;;;;;5.73;1.53;;;;;;;7.09;48.65;98897.81;5001275;28;20421;-68
2022/02/08 05:57:39;;;;;;;5.67;1.53;;;;;;;7.16;48.75;98894.75;4993219;28;20470;-68
2022/02/08 06:00:06;;;;;;;7.33;2.03;;;;;;;7.23;48.41;98893.44;5010038;28;20432;-68
2022/02/08 06:02:31;;;;;;;5.27;1.90;;;;;;;7.23;49.05;98890.84;5000840;28;20181;-68
2022/02/08 06:04:57;;;;;;;8.90;2.00;;;;;;;7.25;48.91;98884.69;5003443;28;20489;-68
2022/02/08 06:07:23;;;;;;;5.87;1.90;;;;;;;7.26;49.18;98889.00;5005955;28;20181;-68
2022/02/08 06:09:53;;;;;;;11.37;2.80;;;;;;;7.10;49.05;98892.50;5009763;28;20213;-68
2022/02/08 06:12:22;;;;;;;9.33;2.40;;;;;;;7.21;49.02;98892.69;4994692;28;20443;-68
2022/02/08 06:14:55;;;;;;;12.40;3.40;;;;;;;7.16;49.18;98889.53;4998319;28;20435;-69
2022/02/08 06:17:21;;;;;;;13.20;3.53;;;;;;;7.19;49.14;98889.34;5045176;28;20460;-68
2022/02/08 06:19:46;;;;;;;11.80;3.03;;;;;;;7.20;49.40;98885.81;5040093;28;20461;-67
2022/02/08 06:22:12;;;;;;;8.07;2.23;;;;;;;7.12;49.05;98887.19;5047069;28;20279;-69
2022/02/08 06:24:37;;;;;;;5.43;2.20;;;;;;;7.05;49.59;98886.72;5032538;28;20589;-67
2022/02/08 06:27:03;;;;;;;8.60;2.10;;;;;;;6.98;49.58;98888.84;5040451;28;20195;-69
2022/02/08 06:29:28;;;;;;;9.27;2.20;;;;;;;7.04;49.73;98896.28;5040394;28;20542;-68
2022/02/08 06:31:54;;;;;;;7.30;2.40;;;;;;;7.11;49.39;98895.94;5043572;28;20240;-69
2022/02/08 06:34:23;;;;;;;11.90;4.00;;;;;;;7.15;49.55;98889.59;5049449;28;20269;-69
2022/02/08 06:36:54;;;;;;;13.60;3.70;;;;;;;7.15;49.28;98893.06;5048211;28;20191;-67
2022/02/08 06:39:20;;;;;;;9.03;4.07;;;;;;;7.03;49.62;98904.22;5039576;28;20938;-69
2022/02/08 06:41:46;;;;;;;11.13;3.60;;;;;;;6.92;49.78;98899.59;5033971;28;20460;-69
2022/02/08 06:44:11;;;;;;;7.20;2.60;;;;;;;6.84;49.92;98901.81;5040539;28;20437;-67
2022/02/08 06:46:37;;;;;;;20.33;4.40;;;;;;;6.82;50.31;98899.28;5039428;28;20190;-68
2022/02/08 06:49:02;;;;;;;12.13;3.60;;;;;;;6.86;49.76;98892.16;5036778;28;20178;-68
2022/02/08 06:51:28;;;;;;;11.10;3.50;;;;;;;6.76;49.95;98884.81;5049836;28;20197;-69
2022/02/08 06:53:53;;;;;;;6.70;2.47;;;;;;;6.68;49.84;98883.59;5033961;28;20185;-68
2022/02/08 06:56:18;;;;;;;8.67;2.20;;;;;;;6.81;49.80;98884.56;5031839;28;20206;-68
2022/02/08 06:58:50;;;;;;;6.33;2.20;;;;;;;6.99;49.09;98881.84;5050333;28;20216;-68
2022/02/08 07:01:18;;;;;;;8.93;1.70;;;;;;;6.91;49.48;98885.75;5051510;28;20204;-67
2022/02/08 07:03:46;;;;;;;9.90;2.80;;;;;;;7.08;49.09;98891.72;5048166;28;20427;-66
2022/02/08 07:06:12;;;;;;;8.13;1.90;;;;;;;7.10;48.98;98882.06;5034290;28;20430;-68
2022/02/08 07:08:38;;;;;;;5.20;2.13;;;;;;;7.18;49.32;98892.03;5034674;28;20428;-68
2022/02/08 07:11:03;;;;;;;7.00;2.07;;;;;;;7.21;49.05;98903.13;5042831;28;20437;-67
2022/02/08 07:13:29;;;;;;;8.50;2.40;;;;;;;7.33;48.92;98912.03;5051269;28;20182;-67
2022/02/08 07:15:54;;;;;;;7.23;2.33;;;;;;;7.51;48.22;98909.25;5051334;28;20272;-66
2022/02/08 07:18:20;;;;;;;6.80;2.37;;;;;;;7.41;48.16;98913.31;5042401;28;20205;-66
2022/02/08 07:20:45;;;;;;;10.67;2.63;;;;;;;7.41;48.71;98903.75;5030635;28;20743;-67
2022/02/08 07:23:10;;;;;;;8.93;2.30;;;;;;;7.59;48.58;98909.63;5035109;28;20232;-66
2022/02/08 07:25:36;;;;;;;7.43;2.97;;;;;;;7.66;47.96;98917.94;5031076;28;20186;-65
2022/02/08 07:28:02;;;;;;;12.40;4.40;;;;;;;7.72;48.45;98920.16;5044811;28;20182;-66
2022/02/08 07:30:29;;;;;;;5.60;3.27;;;;;;;7.74;48.08;98913.09;5042306;28;20206;-67
2022/02/08 07:32:55;;;;;;;12.70;3.57;;;;;;;7.86;47.74;98913.28;5051270;28;20921;-66
2022/02/08 07:42:53;;;;;;;10.13;4.47;;;;;;;7.96;47.92;98896.13;5048540;28;20425;-65
2022/02/08 07:46:53;;;;;;;6.70;2.33;;;;;;;7.96;47.79;98903.94;5068906;28;20577;-67
2022/02/08 07:49:18;;;;;;;7.70;2.17;;;;;;;7.92;47.80;98902.47;5084869;28;20883;-67
2022/02/08 07:51:44;;;;;;;9.27;2.37;;;;;;;8.07;47.19;98900.69;5085662;28;20245;-67
2022/02/08 07:54:09;;;;;;;10.63;2.70;;;;;;;8.17;47.48;98898.34;5083340;28;20265;-67
2022/02/08 07:56:35;;;;;;;11.10;2.40;;;;;;;8.07;47.18;98898.91;5088507;28;20188;-67
2022/02/08 07:59:01;;;;;;;6.47;2.50;;;;;;;8.08;48.18;98892.75;5086080;28;20181;-66
2022/02/08 08:07:24;;;;;;;7.50;3.00;;;;;;;8.10;48.10;98900.50;5044094;28;20492;-66
2022/02/08 08:09:50;;;;;;;6.27;2.17;;;;;;;8.06;47.86;98899.00;5041800;28;20491;-67
2022/02/08 08:12:16;;;;;;;7.30;2.33;;;;;;;8.11;48.20;98903.00;5045847;28;20427;-65
2022/02/08 08:14:41;;;;;;;8.43;2.30;;;;;;;8.23;47.84;98900.56;5031130;28;20238;-67
2022/02/08 08:20:54;;;;;;;7.90;1.93;;;;;;;8.35;47.83;98907.63;5052972;28;20574;-67
2022/02/08 08:23:19;;;;;;;12.40;2.30;;;;;;;8.39;47.12;98911.75;5053671;28;20452;-68
2022/02/08 08:25:46;;;;;;;6.67;2.00;;;;;;;8.50;47.41;98910.25;5068411;28;20275;-68
2022/02/08 08:28:12;;;;;;;7.90;2.03;;;;;;;8.45;47.42;98916.56;5068265;28;20220;-68
2022/02/08 08:30:38;;;;;;;8.53;2.20;;;;;;;8.28;47.34;98909.78;5061389;28;20930;-67
2022/02/08 08:33:34;;;;;;;10.30;1.97;;;;;;;8.45;47.35;98900.88;5043581;28;20205;-66
2022/02/08 08:36:00;;;;;;;10.13;2.37;;;;;;;8.52;46.95;98905.75;5048589;28;20476;-69
2022/02/08 08:38:28;;;;;;;9.00;1.87;;;;;;;8.28;47.18;98903.75;5048474;28;20289;-66
2022/02/08 08:41:03;;;;;;;5.47;2.00;;;;;;;8.34;47.22;98889.44;5048205;28;20221;-68
2022/02/08 08:48:49;;;;;;;5.53;1.90;;;;;;;8.78;46.69;98880.56;5048297;28;20182;-67
2022/02/08 08:51:40;;;;;;;5.67;2.33;;;;;;;8.67;46.12;98878.66;5047546;28;20190;-67
2022/02/08 08:54:07;;;;;;;7.97;2.43;;;;;;;8.65;46.21;98875.28;5048043;28;20467;-68
2022/02/08 08:56:33;;;;;;;10.70;2.47;;;;;;;8.80;45.86;98880.47;5048253;28;20441;-68
2022/02/08 08:58:59;;;;;;;6.50;2.30;;;;;;;9.12;46.92;98874.88;5047513;28;20456;-70
2022/02/08 09:01:25;;;;;;;7.17;2.10;;;;;;;9.78;46.06;98877.41;5048002;28;20956;-67
2022/02/08 09:03:52;;;;;;;7.23;2.30;;;;;;;10.39;44.13;98879.31;5046649;28;20323;-67
2022/02/08 09:06:17;;;;;;;10.93;2.53;;;;;;;10.80;42.61;98866.75;5061716;28;20185;-67
2022/02/08 09:08:43;;;;;;;7.23;2.23;;;;;;;11.27;41.30;98862.38;5067810;28;20829;-67
2022/02/08 09:11:28;;;;;;;9.53;3.10;;;;;;;11.53;40.62;98856.91;5049827;28;20210;-67
2022/02/08 09:14:05;;;;;;;11.57;2.10;;;;;;;12.01;39.95;98863.75;5057142;28;20450;-69
2022/02/08 09:29:39;;;;;;;8.40;2.13;;;;;;;13.11;37.15;98867.22;5047510;28;20418;-66
2022/02/08 09:32:17;;;;;;;4.40;1.90;;;;;;;13.37;37.13;98855.34;5048154;28;20530;-67
2022/02/08 09:34:44;;;;;;;13.93;1.70;;;;;;;13.05;37.13;98866.78;5049452;28;20419;-67
2022/02/08 09:37:11;;;;;;;7.50;2.73;;;;;;;12.84;37.55;98858.06;5049351;28;20499;-67
2022/02/08 09:39:38;;;;;;;9.13;2.23;;;;;;;12.99;37.69;98851.50;5048646;28;20454;-67
2022/02/08 09:42:06;;;;;;;10.53;3.13;;;;;;;13.45;37.10;98854.72;5038652;28;20438;-67
2022/02/08 09:44:33;;;;;;;12.10;2.90;;;;;;;13.66;37.10;98852.06;5048133;28;20450;-69
2022/02/08 09:47:00;;;;;;;6.67;2.20;;;;;;;13.87;36.96;98856.44;5058961;28;20431;-69
2022/02/08 09:49:26;;;;;;;7.27;1.97;;;;;;;14.44;36.48;98851.44;5059109;28;20444;-68
2022/02/08 09:51:51;;;;;;;5.10;1.87;;;;;;;14.81;35.15;98843.84;5055324;28;20434;-69
2022/02/08 09:54:19;;;;;;;9.80;2.90;;;;;;;15.24;35.08;98844.41;5056686;28;20201;-68
2022/02/08 09:56:46;;;;;;;5.77;2.60;;;;;;;15.64;34.26;98849.41;5044332;28;20260;-70
2022/02/08 09:59:11;;;;;;;9.67;2.00;;;;;;;15.74;33.83;98846.75;5028127;28;20446;-69
2022/02/08 10:01:38;;;;;;;9.50;2.00;;;;;;;16.10;33.58;98849.53;5041222;28;20433;-69
2022/02/08 10:04:04;;;;;;;12.90;2.13;;;;;;;15.39;33.23;98850.88;5025289;28;20210;-67
2022/02/08 10:06:31;;;;;;;6.93;1.70;;;;;;;15.60;33.09;98853.31;5032961;28;20424;-68
2022/02/08 10:09:01;;;;;;;9.63;1.80;;;;;;;15.68;33.19;98843.84;5038980;28;20822;-67
2022/02/08 10:11:39;;;;;;;8.50;1.60;;;;;;;15.94;33.10;98849.31;5033344;28;20437;-67
2022/02/08 10:14:19;;;;;;;7.83;1.77;;;;;;;15.68;32.41;98844.66;5033586;28;20448;-68
2022/02/08 10:22:37;;;;;;;4.20;1.67;;;;;;;15.64;32.29;98846.78;5044730;28;20453;-68
2022/02/08 10:25:08;;;;;;;6.70;2.30;;;;;;;15.88;32.51;98842.00;5041329;28;20800;-68
2022/02/08 10:27:41;;;;;;;4.97;1.93;;;;;;;16.09;32.50;98845.22;5052977;28;20437;-68
2022/02/08 10:38:24;;;;;;;5.87;1.83;;;;;;;16.01;32.15;98868.09;5033117;28;20468;-67
2022/02/08 10:40:50;;;;;;;7.67;1.77;;;;;;;15.66;32.56;98870.41;5032680;28;20984;-68
2022/02/08 10:43:16;;;;;;;11.10;1.77;;;;;;;15.20;33.38;98879.00;5031634;28;20237;-68
2022/02/08 10:45:43;;;;;;;9.80;2.97;;;;;;;15.27;33.67;98873.16;5032594;28;20422;-69
2022/02/08 10:48:11;;;;;;;7.33;1.93;;;;;;;15.64;33.93;98878.50;5032804;28;20836;-69
2022/02/08 10:50:45;;;;;;;4.67;1.87;;;;;;;15.85;33.39;98869.53;5032677;28;20449;-68
2022/02/08 10:53:12;;;;;;;8.13;2.07;;;;;;;16.23;33.26;98865.03;5032249;28;20458;-69
2022/02/08 10:55:53;;;;;;;7.60;1.80;;;;;;;15.71;32.88;98870.81;5032488;28;20438;-68
2022/02/08 10:58:36;;;;;;;13.33;2.40;;;;;;;16.08;32.79;98871.78;5032371;28;20438;-68
2022/02/08 11:01:07;;;;;;;8.17;1.80;;;;;;;16.05;33.00;98861.53;5017292;28;20897;-68
2022/02/08 11:03:45;;;;;;;7.35;1.80;;;;;;;16.27;32.77;98860.28;5033122;28;20493;-68
2022/02/08 11:06:30;;;;;;;6.50;2.20;;;;;;;16.84;32.26;98853.91;5025947;28;20722;-69
2022/02/08 11:16:32;;;;;;;5.90;2.87;;;;;;;17.64;31.10;98861.75;5032784;28;20434;-68
2022/02/08 11:19:26;;;;;;;7.00;1.73;;;;;;;17.69;30.83;98865.75;5032402;28;20462;-68
2022/02/08 11:21:55;;;;;;;7.17;2.77;;;;;;;17.88;30.94;98859.41;5041158;28;20451;-68
2022/02/08 11:24:42;;;;;;;4.50;2.43;;;;;;;18.53;31.26;98868.59;5052062;28;20437;-68
2022/02/08 11:27:11;;;;;;;7.13;2.20;;;;;;;18.68;29.84;98855.50;5051969;28;20471;-67
2022/02/08 11:29:44;;;;;;;5.60;2.23;;;;;;;18.22;30.03;98851.44;5051631;28;20467;-67
2022/02/08 12:04:52;;;;;;;3.20;1.23;;;;;;;15.96;38.08;98837.63;5030946;28;20442;-68
2022/02/08 12:07:19;;;;;;;3.60;1.40;;;;;;;15.86;38.20;98834.19;5031249;28;20419;-68
2022/02/08 12:09:56;;;;;;;4.77;1.43;;;;;;;16.01;38.40;98842.47;5031485;28;20426;-68
2022/02/08 12:35:43;;;;;;;5.40;1.53;;;;;;;16.13;40.05;98824.59;5031270;28;20853;-68
2022/02/08 12:49:06;;;;;;;2.60;1.33;;;;;;;16.39;39.97;98835.28;5030535;28;20434;-69
2022/02/08 12:56:45;;;;;;;2.17;1.37;;;;;;;16.02;40.42;98830.91;5048487;28;20781;-69
2022/02/08 14:01:31;;;;;;;2.23;1.00;;;;;;;15.25;42.52;98817.00;5033664;28;20551;-68
2022/02/08 14:02:35;;;;;;;7.67;2.27;;;;;;;14.78;43.85;98802.75;5033174;28;20441;-66
2022/02/08 14:08:07;;;;;;;6.23;1.40;;;;;;;14.70;43.93;98798.16;5033103;28;20461;-68
2022/02/08 14:13:37;;;;;;;5.20;1.20;;;;;;;14.79;43.60;98791.22;5033283;28;20482;-67
2022/02/08 14:16:12;;;;;;;2.93;1.30;;;;;;;14.75;43.80;98787.19;5033507;28;20454;-67
2022/02/08 14:18:51;;;;;;;2.83;1.60;;;;;;;14.72;44.09;98790.94;5032982;28;20421;-66
2022/02/08 14:21:39;;;;;;;3.97;1.30;;;;;;;14.55;44.39;98795.09;5033515;28;20563;-66
2022/02/08 14:29:36;;;;;;;7.70;1.40;;;;;;;14.48;44.76;98788.72;5033413;28;20506;-66
2022/02/08 15:07:01;;;;;;;4.72;1.20;;;;;;;14.16;46.33;98762.59;5031975;28;20417;-68
2022/02/08 15:09:31;;;;;;;1.20;1.00;;;;;;;14.13;46.30;98782.16;5032096;28;20341;-67
2022/02/08 15:12:16;;;;;;;2.97;1.27;;;;;;;14.13;46.37;98771.59;5031904;28;20425;-68
2022/02/08 15:14:49;;;;;;;3.33;1.20;;;;;;;14.08;46.55;98787.81;5031918;28;20416;-68
2022/02/08 15:17:16;;;;;;;2.93;1.40;;;;;;;14.02;46.83;98777.00;5032549;28;20415;-68
2022/02/08 15:19:44;;;;;;;3.97;1.20;;;;;;;13.90;47.28;98787.66;5032090;28;20499;-68
2022/02/08 15:22:10;;;;;;;2.77;1.17;;;;;;;13.89;47.43;98783.34;5031680;28;20929;-68
2022/02/08 15:24:36;;;;;;;5.90;1.23;;;;;;;13.88;47.18;98781.69;5032017;28;20456;-68
2022/02/08 15:27:03;;;;;;;4.03;0.97;;;;;;;13.86;47.63;98778.34;5031685;28;20427;-68
2022/02/08 15:29:31;;;;;;;2.30;1.10;;;;;;;13.92;47.42;98783.09;5027139;28;20470;-68
2022/02/08 15:31:56;;;;;;;4.47;1.53;;;;;;;13.98;47.21;98787.84;5034043;28;20423;-68
2022/02/08 15:34:22;;;;;;;1.70;1.23;;;;;;;13.91;47.07;98789.31;5051649;28;20444;-68
2022/02/08 15:36:47;;;;;;;4.57;1.23;;;;;;;14.03;47.13;98786.56;5051498;28;20232;-68
2022/02/08 15:39:13;;;;;;;3.33;1.10;;;;;;;14.03;46.75;98789.22;5051558;28;20202;-68
2022/02/08 15:41:39;;;;;;;7.03;1.67;;;;;;;14.05;47.12;98787.28;5051402;28;20220;-68
2022/02/08 15:44:12;;;;;;;5.97;1.60;;;;;;;14.02;47.07;98788.38;5051524;28;20715;-68
2022/02/08 15:46:37;;;;;;;2.63;1.50;;;;;;;14.03;47.32;98792.69;5051448;28;20434;-68
2022/02/08 15:49:03;;;;;;;3.10;1.57;;;;;;;13.97;47.36;98791.44;5051662;28;20414;-68
2022/02/08 15:51:42;;;;;;;5.10;1.63;;;;;;;13.97;47.38;98798.50;5051486;28;20552;-68
2022/02/08 15:56:56;;;;;;;2.17;1.30;;;;;;;13.82;47.96;98798.03;5051556;28;20422;-68
2022/02/08 16:07:25;;;;;;;1.57;1.03;;;;;;;13.78;49.24;98801.91;5051417;28;20187;-68
2022/02/08 16:09:57;;;;;;;4.10;1.03;;;;;;;13.82;48.32;98803.31;5050958;28;20428;-67
2022/02/08 16:12:38;;;;;;;4.60;1.30;;;;;;;13.86;48.50;98802.06;5050719;28;20463;-67
2022/02/08 16:17:44;;;;;;;4.30;1.37;;;;;;;13.86;48.68;98799.44;5031472;28;20931;-68
2022/02/08 16:20:20;;;;;;;5.40;1.07;;;;;;;13.86;48.63;98806.50;5021067;28;20496;-67
2022/02/08 16:46:09;;;;;;;5.22;1.50;;;;;;;13.66;49.26;98814.38;5030179;28;20413;-67
2022/02/08 16:54:29;;;;;;;4.73;1.87;;;;;;;13.76;49.05;98823.13;5040946;28;20231;-68
2022/02/08 16:59:37;;;;;;;2.90;1.73;;;;;;;13.74;49.22;98816.31;5034863;28;20446;-68
2022/02/08 17:02:06;;;;;;;3.37;1.50;;;;;;;13.73;48.99;98815.47;5034710;28;20429;-68
2022/02/08 17:04:32;;;;;;;3.43;1.77;;;;;;;13.70;48.84;98818.38;5034750;28;20430;-68
2022/02/08 17:06:58;;;;;;;8.33;1.77;;;;;;;13.70;49.25;98810.47;5034439;28;20411;-68
2022/02/08 17:12:21;;;;;;;4.90;1.87;;;;;;;13.70;49.00;98818.38;5050148;28;20226;-68
2022/02/08 17:49:55;;;;;;;14.93;5.87;;;;;;;13.70;47.91;98804.38;5053894;28;20567;-68
2022/02/08 17:52:21;;;;;;;16.83;5.87;;;;;;;13.70;47.65;98810.47;5053060;28;20262;-68
2022/02/08 17:54:46;;;;;;;6.00;3.00;;;;;;;13.68;47.43;98809.78;5053594;28;20438;-68
2022/02/08 17:57:13;;;;;;;6.53;2.60;;;;;;;13.63;47.99;98814.63;5049242;28;20275;-68
2022/02/08 17:59:39;;;;;;;12.00;2.47;;;;;;;13.60;47.27;98814.88;5016632;28;20210;-68
2022/02/08 18:02:06;;;;;;;4.30;2.40;;;;;;;13.62;47.54;98818.22;5033528;28;20923;-68
2022/02/08 18:04:31;;;;;;;4.57;2.03;;;;;;;13.63;47.71;98825.16;5033505;28;20441;-68
2022/02/08 18:06:58;;;;;;;4.93;2.50;;;;;;;13.63;47.41;98819.88;5033659;28;20468;-69
2022/02/08 18:09:26;;;;;;;12.90;4.00;;;;;;;13.62;47.86;98826.94;5033327;28;20180;-67
2022/02/08 18:11:52;;;;;;;10.37;3.80;;;;;;;13.65;48.09;98824.06;5015987;28;20848;-68
2022/02/08 18:14:20;;;;;;;5.50;2.93;;;;;;;13.67;48.01;98822.13;5033277;28;20444;-69
2022/02/08 18:16:51;;;;;;;11.50;4.70;;;;;;;13.71;47.69;98821.88;5033469;28;20278;-68
2022/02/08 18:19:19;;;;;;;7.03;4.20;;;;;;;13.70;47.42;98830.72;5033260;28;20987;-67
2022/02/08 18:22:08;;;;;;;8.60;2.97;;;;;;;13.71;47.48;98837.69;5033403;28;20466;-67
2022/02/08 18:25:00;;;;;;;5.60;3.00;;;;;;;13.66;47.93;98845.97;5033904;28;20437;-68
2022/02/08 18:27:44;;;;;;;5.03;2.57;;;;;;;13.52;48.22;98840.09;5033322;28;20469;-70
2022/02/08 18:55:49;;;;;;;8.80;3.20;;;;;;;13.54;48.21;98826.78;5052916;28;20440;-68